Time;durP1;ratioP1;P1;durP2;ratioP2;P2;SDS_P1;SDS_P2;PMS_P1;PMS_P2;Temp;Humidity;BMP_temperature;BMP_pressure;BME280_temperature;BME280_humidity;BME280_pressure;Samples;Min_cycle;Max_cycle;Signal;HPM_P1;HPM_P2
2023/05/23 00:01:09;;;;;;;;;;;16.10;64.80;;;;;;5006137;28;19944;-78
2023/05/23 00:03:36;;;;;;;;;;;16.10;64.70;;;;;;5008129;28;19929;-77
2023/05/23 00:06:05;;;;;;;;;;;16.10;64.70;;;;;;5010515;28;20294;-77
2023/05/23 00:08:31;;;;;;;;;;;16.10;65.10;;;;;;5009756;28;19925;-77
2023/05/23 00:10:58;;;;;;;;;;;16.10;65.20;;;;;;5006280;28;19977;-77
2023/05/23 00:13:25;;;;;;;;;;;16.10;64.90;;;;;;5006461;28;20008;-77
2023/05/23 00:15:52;;;;;;;;;;;16.10;65.70;;;;;;5000207;28;19928;-78
2023/05/23 00:18:19;;;;;;;;;;;16.00;66.00;;;;;;5006500;28;19921;-77
2023/05/23 00:20:45;;;;;;;;;;;16.00;66.60;;;;;;5008692;28;19925;-77
2023/05/23 00:23:17;;;;;;;;;;;16.00;66.60;;;;;;4999483;28;19941;-77
2023/05/23 00:25:51;;;;;;;;;;;15.90;66.80;;;;;;5006030;28;19933;-77
2023/05/23 00:28:18;;;;;;;;;;;15.90;66.80;;;;;;5007134;28;19928;-77
2023/05/23 00:30:45;;;;;;;;;;;15.90;67.10;;;;;;5003893;28;19926;-77
2023/05/23 00:33:13;;;;;;;;;;;15.80;67.30;;;;;;5015060;28;19944;-77
2023/05/23 00:35:40;;;;;;;;;;;15.80;67.40;;;;;;5006914;28;19926;-77
2023/05/23 00:38:07;;;;;;;;;;;15.70;67.50;;;;;;5007918;28;20008;-78
2023/05/23 00:40:34;;;;;;;;;;;15.70;67.90;;;;;;5000018;28;19993;-77
2023/05/23 00:43:01;;;;;;;;;;;15.60;67.80;;;;;;5000750;28;19932;-77
2023/05/23 00:45:28;;;;;;;;;;;15.60;67.30;;;;;;5007194;28;19926;-76
2023/05/23 00:47:55;;;;;;;;;;;15.60;67.30;;;;;;5003891;28;19925;-77
2023/05/23 00:50:22;;;;;;;;;;;15.50;67.80;;;;;;5008008;28;19976;-77
2023/05/23 00:52:49;;;;;;;;;;;15.50;67.80;;;;;;5000404;28;19925;-77
2023/05/23 00:55:16;;;;;;;;;;;15.40;67.80;;;;;;5005265;28;20012;-77
2023/05/23 00:57:43;;;;;;;;;;;15.40;67.80;;;;;;5011545;28;19932;-77
2023/05/23 01:00:11;;;;;;;;;;;15.40;67.80;;;;;;5005958;28;20259;-77
2023/05/23 01:02:44;;;;;;;;;;;15.40;68.10;;;;;;5011641;28;20337;-77
2023/05/23 01:05:13;;;;;;;;;;;15.40;68.30;;;;;;5002922;28;20012;-77
2023/05/23 01:07:40;;;;;;;;;;;15.40;68.00;;;;;;5009864;28;19972;-77
2023/05/23 01:10:07;;;;;;;;;;;15.30;68.00;;;;;;5006556;28;19925;-77
2023/05/23 01:12:34;;;;;;;;;;;15.30;67.90;;;;;;5011480;28;20358;-77
2023/05/23 01:15:05;;;;;;;;;;;15.30;68.50;;;;;;5012865;28;19926;-77
2023/05/23 01:17:35;;;;;;;;;;;15.30;68.10;;;;;;5011010;28;20420;-77
2023/05/23 01:20:08;;;;;;;;;;;15.30;68.60;;;;;;5013806;28;20011;-78
2023/05/23 01:22:54;;;;;;;;;;;15.30;68.40;;;;;;5013870;28;19921;-77
2023/05/23 01:25:20;;;;;;;;;;;15.20;69.00;;;;;;5004334;28;19944;-77
2023/05/23 01:28:10;;;;;;;;;;;15.20;69.00;;;;;;5012609;28;19925;-77
2023/05/23 01:30:39;;;;;;;;;;;15.20;69.30;;;;;;5007642;28;19926;-77
2023/05/23 01:33:07;;;;;;;;;;;15.20;68.90;;;;;;5011853;28;19975;-77
2023/05/23 01:35:34;;;;;;;;;;;15.20;68.70;;;;;;5006788;28;20267;-77
2023/05/23 01:38:01;;;;;;;;;;;15.20;68.60;;;;;;5012283;28;19925;-77
2023/05/23 01:40:27;;;;;;;;;;;15.20;68.80;;;;;;5008167;28;19929;-77
2023/05/23 01:42:56;;;;;;;;;;;15.20;68.30;;;;;;5008530;28;20012;-77
2023/05/23 01:45:25;;;;;;;;;;;15.20;68.80;;;;;;5012505;28;19980;-77
2023/05/23 01:47:52;;;;;;;;;;;15.20;69.20;;;;;;5008864;28;19975;-77
2023/05/23 01:50:19;;;;;;;;;;;15.10;69.10;;;;;;5008185;28;19928;-77
2023/05/23 01:52:46;;;;;;;;;;;15.10;69.60;;;;;;5004519;28;19926;-77
2023/05/23 01:55:14;;;;;;;;;;;15.10;69.30;;;;;;5007669;28;19925;-77
2023/05/23 01:57:43;;;;;;;;;;;15.10;69.50;;;;;;5005339;28;19967;-77
2023/05/23 02:00:10;;;;;;;;;;;15.10;70.00;;;;;;5002913;28;19926;-77
2023/05/23 02:02:37;;;;;;;;;;;15.00;70.40;;;;;;5000844;28;19926;-77
2023/05/23 02:05:05;;;;;;;;;;;15.00;70.30;;;;;;5004337;28;19922;-77
2023/05/23 02:07:31;;;;;;;;;;;15.00;70.30;;;;;;5001606;28;19976;-77
2023/05/23 02:09:58;;;;;;;;;;;14.90;70.60;;;;;;4998379;28;20019;-76
2023/05/23 02:12:25;;;;;;;;;;;14.90;70.70;;;;;;5004959;28;19921;-77
2023/05/23 02:14:52;;;;;;;;;;;14.90;71.10;;;;;;5005061;28;19929;-77
2023/05/23 02:17:20;;;;;;;;;;;14.80;71.00;;;;;;5001102;28;19932;-77
2023/05/23 02:19:47;;;;;;;;;;;14.80;71.70;;;;;;5012364;28;19972;-77
2023/05/23 02:22:14;;;;;;;;;;;14.80;71.60;;;;;;5010137;28;19921;-78
2023/05/23 02:24:41;;;;;;;;;;;14.80;71.50;;;;;;5012282;28;19925;-77
2023/05/23 02:27:08;;;;;;;;;;;14.80;71.60;;;;;;5008314;28;19925;-77
2023/05/23 02:29:34;;;;;;;;;;;14.70;71.30;;;;;;5005751;28;19922;-77
2023/05/23 02:32:01;;;;;;;;;;;14.70;70.80;;;;;;4995660;28;19954;-77
2023/05/23 02:34:28;;;;;;;;;;;14.70;71.00;;;;;;5005707;28;19968;-77
2023/05/23 02:36:55;;;;;;;;;;;14.70;73.10;;;;;;5009537;28;19972;-77
2023/05/23 02:39:22;;;;;;;;;;;14.70;72.30;;;;;;4997709;28;20679;-77
2023/05/23 02:41:49;;;;;;;;;;;14.70;72.30;;;;;;5011454;28;20028;-77
2023/05/23 02:44:18;;;;;;;;;;;14.60;72.70;;;;;;4999228;28;19973;-77
2023/05/23 02:46:45;;;;;;;;;;;14.60;72.10;;;;;;5009619;28;19965;-77
2023/05/23 02:49:11;;;;;;;;;;;14.60;71.80;;;;;;5012518;28;19922;-77
2023/05/23 02:51:38;;;;;;;;;;;14.60;72.40;;;;;;5012463;28;19929;-77
2023/05/23 02:54:05;;;;;;;;;;;14.60;71.50;;;;;;4995153;28;19961;-77
2023/05/23 02:56:32;;;;;;;;;;;14.50;70.90;;;;;;5002673;28;20019;-77
2023/05/23 02:58:58;;;;;;;;;;;14.50;72.10;;;;;;5008844;28;19992;-77
2023/05/23 03:01:25;;;;;;;;;;;14.50;72.60;;;;;;5003177;28;19921;-77
2023/05/23 03:03:52;;;;;;;;;;;14.50;72.70;;;;;;5004085;28;19948;-77
2023/05/23 03:06:21;;;;;;;;;;;14.50;72.60;;;;;;5012315;28;19921;-77
2023/05/23 03:08:48;;;;;;;;;;;14.50;72.20;;;;;;5002947;28;19926;-77
2023/05/23 03:11:15;;;;;;;;;;;14.50;72.80;;;;;;5012070;28;19972;-77
2023/05/23 03:13:42;;;;;;;;;;;14.50;72.90;;;;;;5007466;28;20647;-77
2023/05/23 03:16:08;;;;;;;;;;;14.40;72.40;;;;;;5006715;28;20228;-77
2023/05/23 03:18:35;;;;;;;;;;;14.40;72.10;;;;;;5004846;28;20081;-77
2023/05/23 03:21:02;;;;;;;;;;;14.40;73.20;;;;;;5004383;28;19929;-77
2023/05/23 03:23:29;;;;;;;;;;;14.40;73.00;;;;;;5002736;28;19964;-77
2023/05/23 03:25:56;;;;;;;;;;;14.40;72.30;;;;;;5001654;28;19925;-77
2023/05/23 03:28:22;;;;;;;;;;;14.40;72.50;;;;;;5000341;28;19930;-77
2023/05/23 03:30:49;;;;;;;;;;;14.40;73.40;;;;;;5011058;28;19997;-77
2023/05/23 03:33:16;;;;;;;;;;;14.40;74.00;;;;;;4997082;28;20475;-77
2023/05/23 03:35:43;;;;;;;;;;;14.40;73.90;;;;;;5007168;28;19925;-77
2023/05/23 03:38:10;;;;;;;;;;;14.40;74.90;;;;;;5001997;28;19921;-77
2023/05/23 03:40:37;;;;;;;;;;;14.30;73.80;;;;;;5002913;28;19925;-77
2023/05/23 03:43:04;;;;;;;;;;;14.30;74.50;;;;;;5005083;28;19952;-77
2023/05/23 03:45:31;;;;;;;;;;;14.30;75.60;;;;;;4993808;28;19937;-77
2023/05/23 03:47:59;;;;;;;;;;;14.30;76.80;;;;;;5007686;28;20016;-77
2023/05/23 03:50:26;;;;;;;;;;;14.30;77.50;;;;;;5003587;28;20008;-77
2023/05/23 03:52:53;;;;;;;;;;;14.30;76.40;;;;;;5007489;28;19922;-77
2023/05/23 03:55:21;;;;;;;;;;;14.30;75.90;;;;;;5004325;28;20270;-77
2023/05/23 03:57:48;;;;;;;;;;;14.20;75.70;;;;;;5003131;28;19983;-77
2023/05/23 04:00:15;;;;;;;;;;;14.20;75.20;;;;;;5003558;28;19944;-77
2023/05/23 04:02:42;;;;;;;;;;;14.20;75.60;;;;;;5004694;28;19926;-77
2023/05/23 04:05:09;;;;;;;;;;;14.20;75.50;;;;;;5008795;28;19933;-77
2023/05/23 04:07:36;;;;;;;;;;;14.20;76.10;;;;;;4999540;28;19979;-77
2023/05/23 04:10:03;;;;;;;;;;;14.20;76.40;;;;;;5010702;28;19921;-77
2023/05/23 04:12:30;;;;;;;;;;;14.20;76.20;;;;;;5001353;28;19931;-77
2023/05/23 04:14:57;;;;;;;;;;;14.20;75.70;;;;;;5003903;28;19921;-77
2023/05/23 04:17:24;;;;;;;;;;;14.30;75.60;;;;;;5003982;28;19929;-76
2023/05/23 04:19:51;;;;;;;;;;;14.40;75.80;;;;;;5006683;28;19929;-77
2023/05/23 04:22:18;;;;;;;;;;;14.40;75.50;;;;;;5005230;28;19921;-77
2023/05/23 04:24:44;;;;;;;;;;;14.50;76.40;;;;;;5007493;28;20016;-77
2023/05/23 04:27:12;;;;;;;;;;;14.50;76.90;;;;;;5007055;28;19925;-77
2023/05/23 04:29:39;;;;;;;;;;;14.50;76.80;;;;;;5007393;28;19925;-77
2023/05/23 04:32:06;;;;;;;;;;;14.50;77.30;;;;;;4998941;28;19921;-77
2023/05/23 04:34:33;;;;;;;;;;;14.60;78.00;;;;;;4997908;28;19925;-77
2023/05/23 04:37:03;;;;;;;;;;;14.60;77.50;;;;;;4996486;28;19979;-77
2023/05/23 04:39:30;;;;;;;;;;;14.60;78.50;;;;;;5004253;28;19976;-77
2023/05/23 04:41:56;;;;;;;;;;;14.60;78.50;;;;;;5002034;28;20055;-77
2023/05/23 04:44:25;;;;;;;;;;;14.60;78.80;;;;;;5002315;28;20008;-77
2023/05/23 04:46:52;;;;;;;;;;;14.60;81.80;;;;;;5009005;28;20366;-76
2023/05/23 04:49:21;;;;;;;;;;;14.70;80.80;;;;;;5006713;28;19925;-77
2023/05/23 04:51:48;;;;;;;;;;;14.70;82.10;;;;;;5001908;28;19929;-77
2023/05/23 04:54:15;;;;;;;;;;;14.70;83.40;;;;;;5002088;28;19922;-77
2023/05/23 04:56:41;;;;;;;;;;;14.70;84.40;;;;;;5003375;28;20039;-77
2023/05/23 04:59:10;;;;;;;;;;;14.70;85.50;;;;;;5003488;28;20020;-78
2023/05/23 05:01:39;;;;;;;;;;;14.70;86.00;;;;;;4994808;28;19929;-78
2023/05/23 05:04:07;;;;;;;;;;;14.70;87.20;;;;;;4997138;28;19926;-77
2023/05/23 05:06:33;;;;;;;;;;;14.60;86.80;;;;;;5005260;28;19922;-77
2023/05/23 05:09:00;;;;;;;;;;;14.70;87.40;;;;;;5006492;28;20687;-78
2023/05/23 05:11:27;;;;;;;;;;;14.70;87.00;;;;;;5006362;28;19973;-77
2023/05/23 05:13:54;;;;;;;;;;;14.60;86.80;;;;;;5012863;28;19944;-78
2023/05/23 05:16:21;;;;;;;;;;;14.60;85.60;;;;;;5009133;28;20641;-78
2023/05/23 05:18:48;;;;;;;;;;;14.60;84.90;;;;;;5009742;28;19922;-79
2023/05/23 05:21:14;;;;;;;;;;;14.60;87.10;;;;;;5009308;28;19929;-78
2023/05/23 05:23:42;;;;;;;;;;;14.70;88.20;;;;;;5009059;28;19921;-79
2023/05/23 05:26:09;;;;;;;;;;;14.70;87.80;;;;;;5009926;28;19931;-82
2023/05/23 05:28:37;;;;;;;;;;;14.70;86.80;;;;;;5009197;28;19936;-83
2023/05/23 05:31:04;;;;;;;;;;;14.60;87.30;;;;;;5007150;28;19926;-83
2023/05/23 05:33:34;;;;;;;;;;;14.60;89.40;;;;;;5002263;28;19921;-83
2023/05/23 05:36:02;;;;;;;;;;;14.60;87.40;;;;;;5010415;28;20320;-83
2023/05/23 05:38:29;;;;;;;;;;;14.50;89.70;;;;;;5007145;28;19930;-78
2023/05/23 05:40:56;;;;;;;;;;;14.60;88.50;;;;;;5008123;28;20379;-78
2023/05/23 05:43:23;;;;;;;;;;;14.50;87.00;;;;;;4999277;28;19970;-77
2023/05/23 05:45:49;;;;;;;;;;;14.50;88.60;;;;;;5005636;28;19988;-77
2023/05/23 05:48:16;;;;;;;;;;;14.60;88.70;;;;;;5002132;28;19945;-78
2023/05/23 05:50:44;;;;;;;;;;;14.60;89.80;;;;;;5013033;28;19979;-78
2023/05/23 05:53:11;;;;;;;;;;;14.70;89.70;;;;;;5014021;28;20020;-78
2023/05/23 05:55:38;;;;;;;;;;;14.80;89.80;;;;;;5013772;28;19990;-78
2023/05/23 05:58:05;;;;;;;;;;;14.80;88.90;;;;;;5006177;28;20420;-78
2023/05/23 06:00:33;;;;;;;;;;;14.90;89.70;;;;;;5010164;28;19929;-77
2023/05/23 06:03:00;;;;;;;;;;;15.00;89.70;;;;;;5005840;28;19921;-78
2023/05/23 06:05:27;;;;;;;;;;;15.10;89.30;;;;;;5013157;28;19921;-77
2023/05/23 06:07:54;;;;;;;;;;;15.10;88.80;;;;;;5004262;28;19928;-77
2023/05/23 06:10:20;;;;;;;;;;;15.20;88.20;;;;;;5005879;28;19948;-77
2023/05/23 06:12:47;;;;;;;;;;;15.20;88.60;;;;;;4995808;28;19930;-78
2023/05/23 06:15:14;;;;;;;;;;;15.30;88.30;;;;;;5003158;28;19948;-78
2023/05/23 06:17:43;;;;;;;;;;;15.40;89.00;;;;;;5011801;28;20019;-77
2023/05/23 06:20:10;;;;;;;;;;;15.50;88.30;;;;;;5006622;28;19928;-78
2023/05/23 06:22:37;;;;;;;;;;;15.70;87.90;;;;;;5011290;28;20505;-78
2023/05/23 06:25:05;;;;;;;;;;;15.80;87.80;;;;;;5005442;28;19925;-77
2023/05/23 06:27:32;;;;;;;;;;;15.90;88.60;;;;;;5009383;28;19975;-77
2023/05/23 06:29:58;;;;;;;;;;;16.00;86.70;;;;;;5002703;28;20075;-80
2023/05/23 06:32:25;;;;;;;;;;;16.10;84.80;;;;;;5002744;28;19925;-77
2023/05/23 06:34:52;;;;;;;;;;;16.10;85.20;;;;;;5001504;28;19925;-78
2023/05/23 06:37:19;;;;;;;;;;;16.10;85.60;;;;;;5005681;28;19929;-78
2023/05/23 06:39:45;;;;;;;;;;;16.10;84.50;;;;;;5004093;28;20423;-77
2023/05/23 06:42:12;;;;;;;;;;;16.10;86.30;;;;;;5004262;28;19943;-78
2023/05/23 06:44:39;;;;;;;;;;;16.20;86.40;;;;;;5008973;28;20381;-77
2023/05/23 06:47:05;;;;;;;;;;;16.30;87.00;;;;;;5007597;28;20271;-78
2023/05/23 06:49:32;;;;;;;;;;;16.40;84.90;;;;;;5009085;28;19925;-77
2023/05/23 06:51:59;;;;;;;;;;;16.40;85.90;;;;;;5002174;28;20407;-78
2023/05/23 06:54:26;;;;;;;;;;;16.50;86.00;;;;;;4993247;28;19925;-79
2023/05/23 07:00:17;;;;;;;;;;;16.70;87.30;;;;;;5021278;28;19925;-78
2023/05/23 07:02:47;;;;;;;;;;;16.70;86.20;;;;;;5022868;28;20293;-78
2023/05/23 07:05:14;;;;;;;;;;;16.80;86.10;;;;;;5017740;28;19921;-77
2023/05/23 07:07:42;;;;;;;;;;;16.90;86.80;;;;;;5028344;28;19925;-78
2023/05/23 07:10:09;;;;;;;;;;;17.00;87.00;;;;;;5027893;28;19925;-76
2023/05/23 07:15:19;;;;;;;;;;;17.10;85.30;;;;;;4965736;28;19926;-77
2023/05/23 07:17:45;;;;;;;;;;;17.20;84.40;;;;;;4967397;28;19953;-77
2023/05/23 07:20:12;;;;;;;;;;;17.30;84.50;;;;;;4965259;28;19926;-77
2023/05/23 07:22:39;;;;;;;;;;;17.40;83.00;;;;;;4961246;28;19930;-77
2023/05/23 07:25:06;;;;;;;;;;;17.50;82.80;;;;;;4964798;28;19977;-78
2023/05/23 07:27:33;;;;;;;;;;;17.70;84.20;;;;;;4965693;28;19930;-78
2023/05/23 07:30:00;;;;;;;;;;;17.70;83.20;;;;;;4969626;28;20278;-83
2023/05/23 07:32:27;;;;;;;;;;;17.80;80.70;;;;;;4962977;28;19926;-77
2023/05/23 07:34:54;;;;;;;;;;;17.90;81.00;;;;;;4968008;28;19932;-73
2023/05/23 07:37:21;;;;;;;;;;;18.00;82.60;;;;;;4957588;28;19933;-73
2023/05/23 07:39:47;;;;;;;;;;;18.20;81.80;;;;;;4964173;28;19925;-73
2023/05/23 07:42:14;;;;;;;;;;;18.30;81.60;;;;;;4964960;28;19930;-73
2023/05/23 07:44:41;;;;;;;;;;;18.60;80.20;;;;;;4963481;28;19926;-73
2023/05/23 07:47:08;;;;;;;;;;;18.90;80.00;;;;;;4964271;28;19969;-73
2023/05/23 07:49:35;;;;;;;;;;;19.10;79.00;;;;;;4957379;28;20343;-73
2023/05/23 07:52:01;;;;;;;;;;;19.30;77.50;;;;;;4959316;28;19926;-72
2023/05/23 07:54:28;;;;;;;;;;;19.40;77.00;;;;;;4963658;28;19926;-73
2023/05/23 07:56:55;;;;;;;;;;;19.50;76.70;;;;;;4959531;28;19992;-73
2023/05/23 07:59:22;;;;;;;;;;;19.60;76.00;;;;;;4964034;28;19933;-75
2023/05/23 08:01:51;;;;;;;;;;;19.50;75.00;;;;;;4957807;28;19953;-74
2023/05/23 08:04:18;;;;;;;;;;;19.40;76.20;;;;;;4958732;28;19973;-73
2023/05/23 08:06:48;;;;;;;;;;;19.40;75.90;;;;;;4963615;28;19933;-73
2023/05/23 08:09:30;;;;;;;;;;;19.30;75.60;;;;;;4960030;28;19934;-73
2023/05/23 08:11:57;;;;;;;;;;;19.30;76.60;;;;;;4957588;28;19930;-75
2023/05/23 08:14:25;;;;;;;;;;;19.20;76.40;;;;;;4962046;28;20014;-74
2023/05/23 08:17:12;;;;;;;;;;;19.20;76.80;;;;;;4959764;28;19932;-72
2023/05/23 08:19:39;;;;;;;;;;;19.10;77.50;;;;;;4958480;28;19930;-73
2023/05/23 08:22:06;;;;;;;;;;;19.10;78.10;;;;;;4960240;28;19976;-73
2023/05/23 08:24:33;;;;;;;;;;;19.10;76.60;;;;;;4955541;28;19933;-73
2023/05/23 08:26:59;;;;;;;;;;;19.10;76.50;;;;;;4961554;28;19993;-73
2023/05/23 08:29:27;;;;;;;;;;;19.00;77.00;;;;;;4960396;28;20044;-73
2023/05/23 08:31:53;;;;;;;;;;;19.00;75.90;;;;;;4960321;28;19962;-73
2023/05/23 08:34:20;;;;;;;;;;;18.90;74.70;;;;;;4961682;28;20367;-73
2023/05/23 08:36:47;;;;;;;;;;;18.90;75.30;;;;;;4964218;28;19926;-73
2023/05/23 08:39:14;;;;;;;;;;;18.80;75.60;;;;;;4959960;28;20008;-73
2023/05/23 08:41:40;;;;;;;;;;;18.90;76.80;;;;;;4963331;28;19949;-74
2023/05/23 08:44:07;;;;;;;;;;;18.70;75.30;;;;;;4958222;28;20028;-73
2023/05/23 08:49:57;;;;;;;;;;;18.80;75.40;;;;;;5053298;23;19970;-78
2023/05/23 08:52:24;;;;;;;;;;;18.90;76.20;;;;;;5068081;28;19924;-78
2023/05/23 08:54:51;;;;;;;;;;;19.10;76.40;;;;;;5068013;28;19963;-77
2023/05/23 08:57:18;;;;;;;;;;;19.10;75.80;;;;;;5042566;28;20026;-78
2023/05/23 08:59:47;;;;;;;;;;;19.10;74.20;;;;;;5068104;28;19985;-78
2023/05/23 09:02:15;;;;;;;;;;;19.20;74.00;;;;;;5065120;22;19924;-72
2023/05/23 09:04:42;;;;;;;;;;;19.30;74.80;;;;;;4994265;28;19930;-73
2023/05/23 09:07:10;;;;;;;;;;;19.40;75.40;;;;;;4991785;28;19922;-73
2023/05/23 09:09:37;;;;;;;;;;;20.40;76.90;;;;;;4991385;28;19925;-73
2023/05/23 09:12:04;;;;;;;;;;;21.10;70.50;;;;;;5015980;23;20016;-77
2023/05/23 09:14:32;;;;;;;;;;;21.40;68.10;;;;;;5010684;28;19925;-76
2023/05/23 09:16:59;;;;;;;;;;;21.40;67.90;;;;;;5025329;28;20530;-77
2023/05/23 09:19:29;;;;;;;;;;;21.80;66.70;;;;;;5032070;28;19976;-79
2023/05/23 09:21:57;;;;;;;;;;;22.20;65.30;;;;;;5007435;28;19925;-78
2023/05/23 09:24:32;;;;;;;;;;;22.40;63.60;;;;;;5004812;28;19968;-79
2023/05/23 09:27:00;;;;;;;;;;;22.50;64.80;;;;;;5019044;28;19929;-74
2023/05/23 09:29:27;;;;;;;;;;;22.80;67.50;;;;;;5016827;28;19999;-74
2023/05/23 09:32:12;;;;;;;;;;;23.00;63.70;;;;;;5038779;23;20022;-74
2023/05/23 09:35:03;;;;;;;;;;;23.20;62.50;;;;;;5061875;28;19928;-74
2023/05/23 09:37:31;;;;;;;;;;;22.90;61.20;;;;;;5048301;28;19931;-74
2023/05/23 09:39:59;;;;;;;;;;;23.00;63.20;;;;;;5059518;28;19935;-74
2023/05/23 09:42:33;;;;;;;;;;;23.20;63.60;;;;;;5036961;28;19925;-74
2023/05/23 09:45:00;;;;;;;;;;;23.60;61.10;;;;;;5059125;28;19924;-74
2023/05/23 09:56:02;;;;;;;;;;;24.10;61.30;;;;;;5149858;23;19921;-72
2023/05/23 10:01:34;;;;;;;;;;;24.70;56.00;;;;;;5030854;28;20052;-77
2023/05/23 10:13:19;;;;;;;;;;;24.50;56.90;;;;;;5024679;23;20389;-79
2023/05/23 10:15:48;;;;;;;;;;;23.90;55.80;;;;;;5000273;28;19964;-78
2023/05/23 10:20:47;;;;;;;;;;;23.40;60.50;;;;;;5021034;28;19999;-77
2023/05/23 10:23:16;;;;;;;;;;;22.80;62.60;;;;;;5023557;28;20377;-75
2023/05/23 10:28:26;;;;;;;;;;;22.20;64.80;;;;;;1422885;26;19929;-79
2023/05/23 10:34:17;;;;;;;;;;;21.40;63.40;;;;;;5014275;28;19921;-76
2023/05/23 10:37:06;;;;;;;;;;;20.90;64.70;;;;;;5028440;28;19931;-78
2023/05/23 10:39:45;;;;;;;;;;;20.50;65.80;;;;;;5008014;28;19933;-79
2023/05/23 10:45:16;;;;;;;;;;;20.30;67.40;;;;;;4966917;28;19937;-78
2023/05/23 10:47:42;;;;;;;;;;;20.00;66.30;;;;;;4953288;28;20017;-78
2023/05/23 10:50:14;;;;;;;;;;;19.80;67.10;;;;;;4973011;28;20434;-77
2023/05/23 10:52:44;;;;;;;;;;;19.80;66.10;;;;;;4951199;28;19929;-78
2023/05/23 10:55:13;;;;;;;;;;;19.50;65.40;;;;;;4952810;28;19929;-79
2023/05/23 10:57:42;;;;;;;;;;;19.30;66.40;;;;;;4966746;28;19980;-76
2023/05/23 11:00:13;;;;;;;;;;;19.10;66.90;;;;;;4965369;28;19925;-78
2023/05/23 11:02:46;;;;;;;;;;;19.00;67.50;;;;;;4950235;28;20320;-78
2023/05/23 11:05:18;;;;;;;;;;;18.90;67.80;;;;;;4948816;28;19933;-78
2023/05/23 11:07:45;;;;;;;;;;;18.80;66.90;;;;;;4970905;28;20009;-79
2023/05/23 11:10:12;;;;;;;;;;;18.70;67.60;;;;;;4964477;28;20759;-76
2023/05/23 11:12:41;;;;;;;;;;;18.80;67.70;;;;;;4959684;28;19926;-79
2023/05/23 11:15:18;;;;;;;;;;;18.70;68.40;;;;;;4968480;28;20000;-80
2023/05/23 11:20:34;;;;;;;;;;;18.70;67.10;;;;;;5004672;28;19921;-79
2023/05/23 11:23:02;;;;;;;;;;;18.50;67.60;;;;;;5002178;28;20340;-78
2023/05/23 11:28:09;;;;;;;;;;;18.30;66.60;;;;;;4983592;28;19930;-72
2023/05/23 11:30:41;;;;;;;;;;;18.10;67.20;;;;;;5001310;22;19929;-73
2023/05/23 11:33:12;;;;;;;;;;;18.10;67.10;;;;;;4988055;28;19933;-73
2023/05/23 11:35:53;;;;;;;;;;;17.60;67.80;;;;;;4982012;28;20440;-74
2023/05/23 11:38:24;;;;;;;;;;;17.50;68.80;;;;;;4980771;28;19926;-73
2023/05/23 11:41:43;;;;;;;;;;;;;;;;;;;;;
2023/05/23 11:44:23;;;;;;;;;;;;;;;;;;;;;
2023/05/23 11:47:10;;;;;;;;;;;17.00;69.30;;;;;;4909933;29;19930;-74
2023/05/23 11:49:43;;;;;;;;;;;16.90;69.40;;;;;;4917243;29;19923;-73
2023/05/23 11:52:09;;;;;;;;;;;16.80;69.30;;;;;;4923727;28;20010;-73
2023/05/23 11:54:36;;;;;;;;;;;16.50;68.80;;;;;;4976451;28;19935;-73
2023/05/23 11:57:03;;;;;;;;;;;16.50;74.10;;;;;;5000361;28;19971;-74
2023/05/23 11:59:30;;;;;;;;;;;16.30;78.00;;;;;;4981310;28;19929;-74
2023/05/23 12:01:57;;;;;;;;;;;16.10;80.40;;;;;;4982717;28;19931;-74
2023/05/23 12:04:25;;;;;;;;;;;15.90;82.00;;;;;;4989160;28;20015;-74
2023/05/23 12:06:53;;;;;;;;;;;15.80;85.60;;;;;;4999821;28;21104;-74
2023/05/23 12:09:20;;;;;;;;;;;15.60;87.10;;;;;;4998115;28;20020;-73
2023/05/23 12:11:47;;;;;;;;;;;15.40;86.40;;;;;;4978004;28;20096;-73
2023/05/23 12:14:15;;;;;;;;;;;15.30;89.30;;;;;;4991845;28;20006;-73
2023/05/23 12:16:47;;;;;;;;;;;15.20;89.50;;;;;;5000769;28;19932;-73
2023/05/23 12:19:15;;;;;;;;;;;15.00;90.40;;;;;;5000271;28;19932;-73
2023/05/23 12:21:46;;;;;;;;;;;15.00;90.90;;;;;;4992375;28;19936;-73
2023/05/23 12:24:14;;;;;;;;;;;14.90;91.60;;;;;;4997647;28;20039;-73
2023/05/23 12:26:55;;;;;;;;;;;14.90;92.40;;;;;;4992363;28;19971;-73
2023/05/23 12:29:32;;;;;;;;;;;15.00;92.50;;;;;;5016601;28;19929;-73
2023/05/23 12:32:02;;;;;;;;;;;15.00;92.10;;;;;;5016621;28;19926;-73
2023/05/23 12:34:29;;;;;;;;;;;14.90;91.50;;;;;;4977487;28;20034;-73
2023/05/23 12:36:56;;;;;;;;;;;14.90;92.80;;;;;;5002954;28;20051;-73
2023/05/23 12:39:44;;;;;;;;;;;14.90;91.50;;;;;;4980752;28;20491;-73
2023/05/23 12:42:11;;;;;;;;;;;14.90;92.70;;;;;;5001601;28;19929;-72
2023/05/23 12:44:39;;;;;;;;;;;14.80;91.10;;;;;;4995536;28;19932;-73
2023/05/23 12:47:06;;;;;;;;;;;14.80;91.80;;;;;;5005245;28;20101;-73
2023/05/23 12:49:33;;;;;;;;;;;14.60;91.10;;;;;;4989691;28;20011;-72
2023/05/23 12:52:00;;;;;;;;;;;14.50;91.60;;;;;;5003569;28;20286;-73
2023/05/23 12:54:27;;;;;;;;;;;14.50;91.30;;;;;;4996214;28;20004;-73
2023/05/23 12:56:53;;;;;;;;;;;14.40;91.80;;;;;;5001940;28;20053;-73
2023/05/23 13:09:42;;;;;;;;;;;14.10;91.60;;;;;;5000702;28;19968;-80
2023/05/23 13:12:18;;;;;;;;;;;14.00;90.30;;;;;;5013647;28;20505;-83
2023/05/23 13:14:45;;;;;;;;;;;13.90;91.20;;;;;;4993057;28;19925;-81
2023/05/23 13:17:11;;;;;;;;;;;13.90;91.10;;;;;;5003670;28;20032;-81
2023/05/23 13:19:39;;;;;;;;;;;13.80;89.50;;;;;;5013873;28;19929;-79
2023/05/23 13:22:09;;;;;;;;;;;13.80;90.60;;;;;;5013349;28;19926;-77
2023/05/23 13:24:39;;;;;;;;;;;13.70;89.30;;;;;;4992114;28;19929;-79
2023/05/23 13:27:06;;;;;;;;;;;13.60;89.40;;;;;;5013203;28;19925;-78
2023/05/23 13:29:33;;;;;;;;;;;13.50;89.50;;;;;;5024224;28;20417;-80
2023/05/23 13:32:00;;;;;;;;;;;13.40;89.90;;;;;;5019732;28;19973;-81
2023/05/23 13:34:27;;;;;;;;;;;13.30;89.60;;;;;;5023348;28;19936;-75
2023/05/23 13:36:54;;;;;;;;;;;13.20;89.70;;;;;;5022726;28;20281;-81
2023/05/23 13:39:21;;;;;;;;;;;13.10;90.20;;;;;;5019575;28;19925;-83
2023/05/23 13:41:49;;;;;;;;;;;13.00;91.30;;;;;;5003850;28;20623;-81
2023/05/23 13:44:15;;;;;;;;;;;13.00;91.90;;;;;;5007477;28;20257;-83
2023/05/23 13:46:42;;;;;;;;;;;12.80;91.50;;;;;;5005582;28;20060;-82
2023/05/23 13:49:09;;;;;;;;;;;12.80;92.50;;;;;;5032017;28;19924;-83
2023/05/23 13:51:36;;;;;;;;;;;12.60;91.80;;;;;;5022079;28;20281;-82
2023/05/23 13:54:03;;;;;;;;;;;12.50;92.60;;;;;;4993665;28;19933;-81
2023/05/23 13:56:30;;;;;;;;;;;12.40;92.70;;;;;;5013606;28;20751;-82
2023/05/23 13:58:58;;;;;;;;;;;12.30;91.50;;;;;;5020327;28;20772;-80
2023/05/23 14:01:24;;;;;;;;;;;12.30;92.90;;;;;;5016792;28;19937;-80
2023/05/23 14:03:51;;;;;;;;;;;12.20;91.40;;;;;;5003600;28;19925;-80
2023/05/23 14:06:18;;;;;;;;;;;12.20;91.80;;;;;;5003450;28;19929;-79
2023/05/23 14:08:45;;;;;;;;;;;12.10;91.00;;;;;;5022111;28;20534;-80
2023/05/23 14:11:12;;;;;;;;;;;12.10;91.20;;;;;;5022720;28;19932;-81
2023/05/23 14:13:38;;;;;;;;;;;12.10;91.00;;;;;;5021324;28;20461;-81
2023/05/23 14:16:05;;;;;;;;;;;12.00;90.90;;;;;;5023152;28;19960;-81
2023/05/23 14:18:32;;;;;;;;;;;12.10;90.80;;;;;;5008265;28;19932;-80
2023/05/23 14:20:58;;;;;;;;;;;12.00;90.30;;;;;;5001060;28;19929;-81
2023/05/23 14:23:25;;;;;;;;;;;12.00;90.00;;;;;;5023966;28;19929;-82
2023/05/23 14:25:52;;;;;;;;;;;12.00;89.90;;;;;;5022970;28;19932;-82
2023/05/23 14:28:19;;;;;;;;;;;12.00;90.40;;;;;;5026106;28;20238;-80
2023/05/23 14:30:45;;;;;;;;;;;12.00;88.40;;;;;;5021254;28;19957;-81
2023/05/23 14:33:12;;;;;;;;;;;12.00;89.10;;;;;;5020749;28;19928;-79
2023/05/23 14:35:40;;;;;;;;;;;12.10;88.10;;;;;;5021175;28;19921;-79
2023/05/23 14:38:07;;;;;;;;;;;12.10;87.70;;;;;;5028563;28;19955;-79
2023/05/23 14:40:34;;;;;;;;;;;12.10;87.70;;;;;;5003920;28;20016;-79
2023/05/23 14:43:01;;;;;;;;;;;12.20;86.20;;;;;;5000301;28;19932;-80
2023/05/23 14:45:28;;;;;;;;;;;12.20;86.70;;;;;;5003037;28;20370;-78
2023/05/23 14:47:55;;;;;;;;;;;12.20;85.00;;;;;;5021647;28;19925;-78
2023/05/23 14:50:21;;;;;;;;;;;12.30;85.60;;;;;;5030570;28;19976;-78
2023/05/23 14:52:48;;;;;;;;;;;12.30;86.20;;;;;;5022841;28;19991;-78
2023/05/23 14:55:15;;;;;;;;;;;12.40;86.20;;;;;;5017085;28;20023;-78
2023/05/23 14:57:42;;;;;;;;;;;12.40;85.30;;;;;;5022783;28;19925;-78
2023/05/23 15:00:10;;;;;;;;;;;12.50;85.20;;;;;;5003363;28;19929;-78
2023/05/23 15:02:37;;;;;;;;;;;12.50;84.90;;;;;;5003106;28;19967;-77
2023/05/23 15:05:04;;;;;;;;;;;12.60;84.80;;;;;;5020411;28;19955;-77
2023/05/23 15:07:31;;;;;;;;;;;12.70;85.30;;;;;;4997595;28;19937;-76
2023/05/23 15:09:58;;;;;;;;;;;12.80;84.40;;;;;;5019028;28;19925;-78
2023/05/23 15:12:24;;;;;;;;;;;12.90;83.70;;;;;;5022669;28;20024;-78
2023/05/23 15:14:51;;;;;;;;;;;13.00;83.70;;;;;;5004797;28;20340;-78
2023/05/23 15:17:20;;;;;;;;;;;13.10;83.10;;;;;;5005427;28;19944;-78
2023/05/23 15:19:49;;;;;;;;;;;13.20;82.30;;;;;;5027257;28;20338;-78
2023/05/23 15:22:16;;;;;;;;;;;13.30;81.30;;;;;;5019182;28;19925;-77